NWS Home NWS Lubbock West Texas Mesonet                      Daily Summary For 03/01/2021

Latest   N   C   S   Daily Sum   3hrΔ   24hrΔ   Soil Data 
Site Map   24hr Precip   72hr Precip   Google Plot


Station Time of Last Max Temp Min Temp Max/Min Dew Pt. Max/Min RH 10m Avg Wind 2m Avg Wind Peak Gust @ 33ft (mph) Potential Evapotranspiration
mm/day or in/day
Rain Sum Solar Rad
MJ/m^2
% Clear Day Red Flag
Abernathy 5ENE 11:59 PM 71 51 36 /16 48 / 14 12.3  (NE) 9.2 27.4 mph 41° @ 0200 AM 2.3 or 0.09 0.00 15 110.7 0
Adrian 6WSW 11:59 PM 71 51 36 /16 48 / 14 6.8  (E) 4.4 17.7 mph 194° @ 1152 PM 1.5 or 0.06 0.00 21.8 167.2 0
Aiken 3WSW 11:59 PM 71 51 36 /16 48 / 14 12.6  (NE) 9.4 27.9 mph 23° @ 1257 PM 2.3 or 0.09 0.00 17.5 129.9 0
Amarillo 15NNW 11:59 PM 71 51 36 /16 48 / 14 5.5  (NW) 3.8 15.8 mph 29° @ 0214 PM 1.3 or 0.05 0.00 19.9 155.2 0
Amarillo 7SSE 11:59 PM 71 51 36 /16 48 / 14 6.5  (NE) 4.4 19.7 mph 357° @ 0111 PM 1.5 or 0.06 0.00 18.9 145 0
Amarillo 9NNE 11:59 PM 71 51 36 /16 48 / 14 4.1  (NW) 2.9 21.1 mph 2° @ 0110 PM 1 or 0.04 0.00 20.3 157.4 0
Amherst 1NE 11:55 PM 71 51 36 /16 48 / 14 9.8  (NE) 7.3 25.6 mph 31° @ 0230 AM 2 or 0.08 0.00 3.9 145 0
Andrews 2E 11:59 PM 71 51 36 /16 48 / 14 9.6  (NE) 5.4 31.8 mph 45° @ 0352 AM 1.3 or 0.05 0.07 6 41.7 0
Anton 6SSW 11:55 PM 71 51 36 /16 48 / 14 12  (NE) 9.4 30.9 mph 34° @ 1220 AM 2.3 or 0.09 0.00 15.8 115.7 0
Aspermont 3NE 11:55 PM 71 51 36 /16 48 / 14 11.7  (NE) 8.5 31.9 mph 14° @ 1230 AM 1.8 or 0.07 0.00 2.5 91.3 0
Big Bend NP - Castolon 11:59 PM 71 51 36 /16 48 / 14 13.7  (W) 10.7 33.1 mph 308° @ 0112 PM 4.8 or 0.19 0.00 22.6 144.2 0
Big Bend NP - Persimmon Gap 11:59 PM 71 51 36 /16 48 / 14 15.3  (NE) 12.8 32.6 mph 34° @ 1237 AM 3.3 or 0.13 0.00 22.4 144.5 0
Big Lake 1WNW 11:59 PM 71 51 36 /16 48 / 14 12.2  (NE) 9.5 35.4 mph 56° @ 0352 AM 1.5 or 0.06 0.00 6.6 44.8 0
Bootleg 11WNW 11:59 PM 71 51 36 /16 48 / 14 6.6  (NE) 4.2 17.4 mph 254° @ 0519 PM 1.5 or 0.06 0.00 18.5 140.2 0
Borger 7E 11:59 PM 71 51 36 /16 48 / 14 5.1  (E) 3.4 19.7 mph 350° @ 1215 PM 1.3 or 0.05 0.00 22.5 177.2 0
Boys Ranch 1WSW 11:59 PM 71 51 36 /16 48 / 14 4.2  (NW) 3.4 19.3 mph 266° @ 1151 AM 1.3 or 0.05 0.00 21.4 167.2 0
Brownfield 2S 11:59 PM 71 51 36 /16 48 / 14 11.4  (NE) M 39.5 mph 57° @ 1217 AM 2 or 0.08 0.00 10.1 72.7 0
Canadian 6E 11:59 PM 71 51 36 /16 48 / 14 5.8  (NE) 4 20.1 mph 351° @ 1150 AM 1.3 or 0.05 0.00 21.4 171.2 0
Caprock Canyons State Park 11:59 PM 71 51 36 /16 48 / 14 7.5  (NE) 4.9 21 mph 60° @ 0204 PM 1.8 or 0.07 0.00 16.5 124.5 0
Childress 2NNE 11:55 PM 71 51 36 /16 48 / 14 8.9  (N) 5.9 20.6 mph 16° @ 0335 AM 2 or 0.08 0.00 11.3 85.6 0
Clarendon 2WSW 11:55 PM 71 51 36 /16 48 / 14 8.5  (NE) 5.7 25.4 mph 46° @ 0125 PM 2 or 0.08 0.00 19.4 148.9 0
Claude 12SW 11:59 PM 71 51 36 /16 48 / 14 8.1  (NE) 5.5 22.1 mph 54° @ 1244 PM 1.8 or 0.07 0.00 18.7 142.9 0
Clyde 2WNW 11:59 PM 71 51 36 /16 48 / 14 12.9  (NE) 9.7 30.9 mph 47° @ 0528 AM 2 or 0.08 0.14 15.1 107 0
Colorado City 5NW 11:59 PM 71 51 36 /16 48 / 14 12.6  (NE) 9.2 34.2 mph 59° @ 0239 AM 2 or 0.08 0.00 15.7 111.4 0
Comanche Springs 11:59 PM 71 51 36 /16 48 / 14 7  (N) 5.1 28.5 mph 11° @ 0107 AM 1.3 or 0.05 0.00 4.9 37.1 0
Coyanosa 2N 11:59 PM 71 51 36 /16 48 / 14 11.7  (E) 8 28.9 mph 75° @ 1214 AM 1.8 or 0.07 0.00 7.4 50.1 0
Crane 1NNW 11:59 PM 71 51 36 /16 48 / 14 13.7  (E) 11.2 35.4 mph 84° @ 0156 AM 1.8 or 0.07 0.00 7.7 52.2 0
Crowell 1E 11:59 PM 71 51 36 /16 48 / 14 11.1  (N) 8.8 25.9 mph 29° @ 0402 PM 1.8 or 0.07 0.00 6.5 48.5 0
Dell City 11:59 PM 71 51 36 /16 48 / 14 12.5  (W) 9.9 35 mph 11° @ 1020 AM 2.5 or 0.1 0.00 17.2 118.3 0
Denver City 7WNW 11:55 PM 71 51 36 /16 48 / 14 10.8  (NE) 7.8 33.3 mph 55° @ 1225 AM 1.8 or 0.07 0.00 15.2 108.6 0
Dimmitt 2NE 11:55 PM 71 51 36 /16 48 / 14 8.2  (NE) 5.9 20.2 mph 21° @ 0115 PM 1.8 or 0.07 0.00 17.9 134.5 0
Doole 3WNW 11:59 PM 71 51 36 /16 48 / 14 12.1  (N) 9.9 29.8 mph 352° @ 0241 AM 1.8 or 0.07 0.27 8.7 60.1 0
Dora NM 2SW 11:55 PM 71 51 36 /16 48 / 14 9  (NE) 6.3 25.9 mph 38° @ 1230 AM 1.8 or 0.07 0.00 19.8 145.1 0
Dozier 3W 11:59 PM 71 51 36 /16 48 / 14 7.7  (N) 5.1 19.4 mph 50° @ 0242 PM 1.8 or 0.07 0.00 17.2 133.1 0
Earth 9WSW 11:59 PM 71 51 36 /16 48 / 14 9.3  (NE) 7.5 24 mph 53° @ 1246 PM 2 or 0.08 0.00 19 141 0
Endee NM 2SW 11:59 PM 71 51 36 /16 48 / 14 5.2  (NE) 3.2 15.9 mph 245° @ 0409 PM 1.3 or 0.05 0.00 20.3 155.8 0
Estelline 3SSE 11:59 PM 71 51 36 /16 48 / 14 7.5  (NE) 4.9 20.5 mph 30° @ 0150 PM 1.8 or 0.07 0.00 14.4 109.9 0
Floydada 2NNE 11:55 PM 71 51 36 /16 48 / 14 12.3  (NE) 9.2 27.2 mph 32° @ 1215 PM 2.3 or 0.09 0.00 12.5 92.9 0
Fluvanna 3WNW 11:55 PM 71 51 36 /16 48 / 14 14  (N) 11.1 45 mph 30° @ 1235 AM 1.8 or 0.07 0.00 5.6 39.9 0
Fort Chadbourne 11:59 PM 71 51 36 /16 48 / 14 10.9  (NE) 6.7 35.5 mph 54° @ 1215 AM 2 or 0.08 0.07 12.8 89.5 0
Fort Lancaster 11:59 PM 71 51 36 /16 48 / 14 10.1  (E) 6.5 42.9 mph 27° @ 0243 AM 1.8 or 0.07 0.00 8.1 54 0
Fort Lewis CO 11:59 PM 71 51 36 /16 48 / 14 5.7  (N) 3.2 14.7 mph 43° @ 1119 PM 1 or 0.04 0.00 21.9 176.8 0
Fort McKavett 11:59 PM 71 51 36 /16 48 / 14 10.6  (NE) 7.2 31.1 mph 43° @ 0642 AM 1.5 or 0.06 0.12 9 60.4 0
Friona 2NE 11:55 PM 71 51 36 /16 48 / 14 6.8  (NE) 4.6 21.3 mph 58° @ 0130 PM 1.5 or 0.06 0.00 20.5 154.1 0
Fritch 1WNW 11:59 PM 71 51 36 /16 48 / 14 3.6  (E) 2.3 14 mph 71° @ 0157 PM 1 or 0.04 0.00 21.1 165.8 0
Gail 2ESE 11:59 PM 71 51 36 /16 48 / 14 11.9  (NE) 8.2 36.2 mph 33° @ 1238 AM 1.8 or 0.07 0.00 6.9 49.2 0
Goodlett 3W 11:55 PM 71 51 36 /16 48 / 14 9.7  (N) 7.3 26 mph 14° @ 0240 AM 2 or 0.08 0.00 10.8 82 0
Goodnight 11:59 PM 71 51 36 /16 48 / 14 7.7  (NE) 5.6 22.2 mph 37° @ 1223 PM 1.8 or 0.07 0.00 18.3 140.6 0
Graham 5SSW 11:59 PM 71 51 36 /16 48 / 14 12.1  (NE) 8.9 51.5 mph 35° @ 0104 AM 1.8 or 0.07 0.00 5.6 40.2 0
Guadalupe Mtns Natl Park 11:59 PM 71 51 36 /16 48 / 14 12.6  (E) 9.5 31.8 mph 32° @ 0635 AM 1.8 or 0.07 0.00 17.9 121.3 0
Guthrie 10WSW 11:59 PM 71 51 36 /16 48 / 14 10  (N) 7 32.9 mph 14° @ 0203 AM 1.8 or 0.07 0.00 5.4 39.6 0
Hackberry 2SSE 11:59 PM 71 51 36 /16 48 / 14 9.3  (N) 7.2 28.9 mph 26° @ 0140 AM 1.8 or 0.07 0.00 5.6 41.4 0
Happy 1E 11:59 PM 71 51 36 /16 48 / 14 8.3  (NE) 6 23.2 mph 30° @ 0106 PM 1.8 or 0.07 0.00 19.3 146.6 0
Hart 3N 11:55 PM 71 51 36 /16 48 / 14 9.7  (N) 6.9 24.4 mph 44° @ 0105 PM 2 or 0.08 0.00 18.4 137.9 0
Haskell 1NW 11:55 PM 71 51 36 /16 48 / 14 13.7  (NE) 10 34.1 mph 22° @ 1230 AM 2 or 0.08 0.05 15.5 113 0
Hefner 1SW 11:59 PM 71 51 36 /16 48 / 14 13.9  (NE) 10.2 30.7 mph 14° @ 0201 AM 2.3 or 0.09 0.00 14.1 104.2 0
Hereford 2NW 11:55 PM 71 51 36 /16 48 / 14 5.8  (NE) 4.2 18.4 mph 24° @ 0140 PM 1.3 or 0.05 0.00 20.2 153.5 0
Hobbs NM 5NW 11:59 PM 71 51 36 /16 48 / 14 8.1  (NE) 6 27.8 mph 52° @ 0201 AM 1.5 or 0.06 0.11 15 106.3 0
Jayton 1SSE 11:55 PM 71 51 36 /16 48 / 14 10.9  (N) 7.9 31.9 mph 20° @ 0105 AM 1.5 or 0.06 0.00 6.4 46.9 0
Junction 1SSW 11:59 PM 71 51 36 /16 48 / 14 11  (NE) 9.1 29 mph 50° @ 1029 AM 1.8 or 0.07 0.03 6.6 44.1 0
Kent 9E 11:59 PM 71 51 36 /16 48 / 14 8.8  (E) 6.1 24.6 mph 87° @ 0116 AM 1.8 or 0.07 0.00 12.1 80.9 0
Knox City 3NW 11:59 PM 71 51 36 /16 48 / 14 11.3  (NE) 8.2 31.8 mph 20° @ 0137 AM 1.8 or 0.07 0.00 12.7 93.3 0
Lake Alan Henry 1NW 11:59 PM 71 51 36 /16 48 / 14 10.6  (NE) 7.3 35.7 mph 34° @ 1244 AM 1.8 or 0.07 0.00 4.7 33.9 0
Lake McClellan 2NW 11:59 PM 71 51 36 /16 48 / 14 7.9  (NE) 5.9 27.2 mph 53° @ 0252 PM 1.8 or 0.07 0.00 20.2 156.5 0
Lamesa 2SE 11:55 PM 71 51 36 /16 48 / 14 9.4  (NE) 6.2 34.9 mph 44° @ 1245 AM 1.5 or 0.06 0.00 5.1 36 0
Lesley 2S 11:59 PM 71 51 36 /16 48 / 14 9.4  (NE) 6.5 24.6 mph 31° @ 1259 PM 2.3 or 0.09 0.00 16.8 128.7 0
Levelland 4S 11:59 PM 71 51 36 /16 48 / 14 12.3  (NE) 9.9 32.9 mph 44° @ 1227 AM 2.3 or 0.09 0.00 14.8 107.8 0
Lomax 1SSE 11:59 PM 71 51 36 /16 48 / 14 12.7  (NE) 9.8 29.8 mph 347° @ 0318 PM 1.8 or 0.07 0.06 16.8 117.5 0
Lubbock 3WNW TTU 11:55 PM 71 51 36 /16 48 / 14 10  (NE) 7.1 26.9 mph 48° @ 0105 AM 2 or 0.08 0.00 13.2 96.5 0
McAdoo 3NNW 11:59 PM 71 51 36 /16 48 / 14 13.2  (NE) 8.8 36.2 mph 35° @ 1213 AM 2 or 0.08 0.00 7.8 57.8 0
McCamey 1SSW 11:59 PM 71 51 36 /16 48 / 14 9.9  (NE) 8.1 29.8 mph 54° @ 0144 AM 1.5 or 0.06 0.00 5.9 40.2 0
McLean 1E 11:55 PM 71 51 36 /16 48 / 14 8.3  (NE) 6.5 21.8 mph 51° @ 1255 PM 1.8 or 0.07 0.00 19.5 151.7 0
Memphis 1NE 11:59 PM 71 51 36 /16 48 / 14 7.9  (N) 6 23 mph 359° @ 0320 AM 1.8 or 0.07 0.00 16.6 127.2 0
Menard 2NW 11:59 PM 71 51 36 /16 48 / 14 11.2  (NE) 9 28.1 mph 37° @ 0453 AM 1.5 or 0.06 0.06 6.9 46.9 0
Mertzon 3NNE 11:59 PM 71 51 36 /16 48 / 14 10.4  (NE) 7.5 26.9 mph 58° @ 0400 AM 1.5 or 0.06 0.30 7.7 52.5 0
Morton 1ENE 11:55 PM 71 51 36 /16 48 / 14 9.7  (NE) 6.7 27.6 mph 36° @ 1220 AM 2 or 0.08 0.00 15 109.5 0
Muleshoe 2SSW 11:55 PM 71 51 36 /16 48 / 14 8.1  (NE) 5.4 23.7 mph 2° @ 0130 PM 1.8 or 0.07 0.00 21.2 157.7 0
New Home 11:59 PM 71 51 36 /16 48 / 14 9.5  (NE) 4.6 31.4 mph 37° @ 0210 AM 1.8 or 0.07 0.00 10.3 74.4 0
Northfield 1S 11:55 PM 71 51 36 /16 48 / 14 7.6  (NE) 4.9 18.2 mph 27° @ 0315 AM 1.8 or 0.07 0.00 10.8 81.2 0
O'Donnell 1N 11:55 PM 71 51 36 /16 48 / 14 13.1  (NE) 9.7 38.9 mph 42° @ 1255 AM 1.8 or 0.07 0.00 4.1 29.3 0
Odell 4ENE 11:59 PM 71 51 36 /16 48 / 14 9.2  (N) 6.4 26.5 mph 13° @ 0142 AM 1.5 or 0.06 0.00 5.9 45.2 0
Olton 6S 11:55 PM 71 51 36 /16 48 / 14 11.4  (NE) 8.6 25.9 mph 30° @ 1220 AM 2 or 0.08 0.00 18.4 136.2 0
Paducah 10SW 11:55 PM 71 51 36 /16 48 / 14 10.6  (NE) 6.8 27.6 mph 30° @ 0145 AM 2 or 0.08 0.00 1.6 60 0
Palo Duro 4E (JA Ranch) 11:59 PM 71 51 36 /16 48 / 14 8  (N) 5.2 24.4 mph 54° @ 1209 PM 1.8 or 0.07 0.00 18.7 143.5 0
Palo Duro Canyon SP Floor 11:59 PM 71 51 36 /16 48 / 14 3.7  (SE) 1.8 22.2 mph 11° @ 0330 PM 1 or 0.04 0.00 18.5 142.4 0
Palo Duro Canyon State Park Rim 11:59 PM 71 51 36 /16 48 / 14 5.3  (N) 2.9 19.4 mph 3° @ 1221 PM 1.5 or 0.06 0.00 19.1 146.4 0
Palo Duro Reservoir 1NW 11:59 PM 71 51 36 /16 48 / 14 6.4  (NE) 4.7 29.6 mph 338° @ 0203 PM 1.5 or 0.06 0.00 20.2 163.6 0
Pampa 2E 11:55 PM 71 51 36 /16 48 / 14 5.9  (NE) 3.8 20.8 mph 5° @ 1235 PM 1.3 or 0.05 0.00 19.6 153.2 0
Panhandle 1SSW 11:59 PM 71 51 36 /16 48 / 14 5.8  (NE) 4.2 20.6 mph 15° @ 1243 PM 1.3 or 0.05 0.00 20.2 156.5 0
Plains 3N 11:55 PM 71 51 36 /16 48 / 14 11.2  (NE) 8.9 32.9 mph 33° @ 0315 AM 2 or 0.08 0.00 15.5 111.1 0
Plainview 1S 11:59 PM 71 51 36 /16 48 / 14 9.9  (NE) 7.4 27.4 mph 77° @ 1203 PM 2 or 0.08 0.00 18.8 139.7 0
Post 1NE 11:59 PM 71 51 36 /16 48 / 14 9.1  (NE) 5.9 32.9 mph 25° @ 0107 AM 1.8 or 0.07 0.00 5.2 37.5 0
Ralls 1SE 11:59 PM 71 51 36 /16 48 / 14 12.3  (NE) 9.2 32.9 mph 32° @ 0229 AM 2 or 0.08 0.00 8.8 64.5 0
Reese Center 11:59 PM 71 51 36 /16 48 / 14 11.9  (NE) 7.6 29.6 mph 51° @ 0126 AM 2.3 or 0.09 0.00 14 102.3 0
Roaring Springs 3N 11:59 PM 71 51 36 /16 48 / 14 10.3  (N) 7.3 27.4 mph 12° @ 0251 AM 2 or 0.08 0.00 9.3 69.1 0
Romero 11SSW 11:59 PM 71 51 36 /16 48 / 14 5.5  (N) 3 17 mph 234° @ 0238 PM 1.3 or 0.05 0.00 20.1 156.8 0
Rotan 5W 11:59 PM 71 51 36 /16 48 / 14 14.1  (NE) 11.7 32.4 mph 29° @ 0110 AM 2.3 or 0.09 0.00 16.7 120 0
San Angelo 7NW 11:55 PM 71 51 36 /16 48 / 14 8.8  (NE) 6.2 24 mph 52° @ 1230 AM 1.5 or 0.06 0.21 8.3 56.9 0
Seagraves 1SW 11:55 PM 71 51 36 /16 48 / 14 9  (NE) 6.3 31.9 mph 55° @ 1210 AM 1.3 or 0.05 0.00 1.8 62.8 0
Segovia 7SSW 11:59 PM 71 51 36 /16 48 / 14 11.8  (N) 8.6 32.1 mph 14° @ 0442 AM 1.8 or 0.07 0.01 6.6 43.7 0
Seminole 2NNE 11:55 PM 71 51 36 /16 48 / 14 9.9  (NE) 6.9 33.8 mph 45° @ 1255 AM 1.5 or 0.06 0.00 6.7 47.6 0
Seymour 3NW 11:55 PM 71 51 36 /16 48 / 14 13.4  (N) 10.3 28.5 mph 5° @ 0210 AM 2 or 0.08 0.00 13.7 101.6 0
Sierra Blanca 1SSE 11:59 PM 71 51 36 /16 48 / 14 11.4  (NW) 8.5 33.8 mph 328° @ 1250 AM 2.3 or 0.09 0.00 20.7 137.7 38
Silverton 7ESE 11:55 PM 71 51 36 /16 48 / 14 10.3  (NE) 7 22.4 mph 23° @ 1210 AM 2 or 0.08 0.00 14.5 108.9 0
Slaton 2NE 11:59 PM 71 51 36 /16 48 / 14 9.7  (NE) 7.7 34 mph 20° @ 0223 AM 1.8 or 0.07 0.00 9.4 68.6 0
Smyer 11:59 PM 71 51 36 /16 48 / 14 11.3  (NE) 9 27.4 mph 43° @ 1233 AM 2.3 or 0.09 0.00 15.4 112 0
Snyder 3E 11:55 PM 71 51 36 /16 48 / 14 14.4  (NE) 6.9 40.1 mph 37° @ 0105 AM 2 or 0.08 0.00 11.8 84.1 0
Snyder 3SSW 11:59 PM 71 51 36 /16 48 / 14 13.4  (NE) 9.5 36.4 mph 61° @ 0244 AM 2 or 0.08 0.00 12.4 88.1 0
South Plains 3ENE 11:59 PM 71 51 36 /16 48 / 14 9.7  (NE) 6.9 23.4 mph 31° @ 1213 PM 2 or 0.08 0.00 13.8 103.3 0
Spur 1W 11:55 PM 71 51 36 /16 48 / 14 10.2  (NE) 8 32.3 mph 39° @ 0200 AM 1.5 or 0.06 0.00 5.5 40 0
St. Lawrence 5SW 11:59 PM 71 51 36 /16 48 / 14 14.1  (NE) 10.7 34 mph 63° @ 0158 AM 1.5 or 0.06 0.26 13 89.4 0
Stamford 5ESE 11:59 PM 71 51 36 /16 48 / 14 13.4  (NE) 10.4 29.2 mph 32° @ 0340 AM 2 or 0.08 0.07 13.5 97.7 0
Sterling City 4WSW 11:59 PM 71 51 36 /16 48 / 14 10.3  (NE) 7.5 27.8 mph 26° @ 0103 AM 1.5 or 0.06 0.04 10.5 72.9 0
Stinnett 1NNW 11:59 PM 71 51 36 /16 48 / 14 5.7  (NE) 3.9 20.3 mph 27° @ 1232 PM 1.3 or 0.05 0.00 20.9 165.2 0
Stratford 4WNW 11:59 PM 71 51 36 /16 48 / 14 6.5  (N) 4.2 13.9 mph 350° @ 1204 PM 1.5 or 0.06 0.00 20.9 167.8 0
Sundown 8WSW 11:55 PM 71 51 36 /16 48 / 14 11.4  (NE) 7.6 35.2 mph 24° @ 0200 AM 2 or 0.08 0.00 11.9 86.4 0
Sweetwater 11SW 11:59 PM 71 51 36 /16 48 / 14 14.3  (NE) 10.1 41.2 mph 30° @ 0124 AM 2 or 0.08 0.04 18.1 127.3 0
Tahoka 3NNE 11:59 PM 71 51 36 /16 48 / 14 9.6  (NE) 6.2 32.7 mph 40° @ 1252 AM 1.8 or 0.07 0.00 5.3 38.2 0
Tarzan 2WNW 11:59 PM 71 51 36 /16 48 / 14 14.7  (NE) 10.3 33.8 mph 52° @ 0203 AM 1.5 or 0.06 0.02 8.1 56.6 0
Tatum NM 2SW 11:55 PM 71 51 36 /16 48 / 14 12  (NE) 7.9 34.5 mph 44° @ 0220 AM 2.3 or 0.09 0.00 16.1 115.4 0
Throckmorton 1SW 11:59 PM 71 51 36 /16 48 / 14 10.1  (N) 6.3 27.8 mph 34° @ 1247 AM 2 or 0.08 0.00 16.3 118.8 0
Truscott 2SE 11:59 PM 71 51 36 /16 48 / 14 11.6  (N) 8.9 27 mph 14° @ 0141 AM 1.8 or 0.07 0.00 9.1 67.9 0
Tulia 2ENE 11:55 PM 71 51 36 /16 48 / 14 9  (NE) 6.7 24.8 mph 42° @ 0135 PM 2 or 0.08 0.00 15.5 116.4 0
Turkey 2WSW 11:55 PM 71 51 36 /16 48 / 14 10.2  (N) 7.5 24 mph 18° @ 0110 PM 2.3 or 0.09 0.00 12.5 94.6 0
Umbarger 3NNE 11:59 PM 71 51 36 /16 48 / 14 6.9  (NE) 4.1 23.5 mph 16° @ 1245 PM 1.5 or 0.06 0.00 19.1 145.7 0
Van Horn 3ENE 11:59 PM 71 51 36 /16 48 / 14 11.2  (N) 7.8 25.9 mph 22° @ 1219 PM 2 or 0.08 0.00 20.3 135.7 0
Vega 4E 11:59 PM 71 51 36 /16 48 / 14 5.7  (NE) 3.3 17.5 mph 345° @ 1209 PM 1.3 or 0.05 0.00 22.3 172 0
Vigo Park 11:59 PM 71 51 36 /16 48 / 14 8.9  (NE) 6.1 25.1 mph 56° @ 1216 PM 1.8 or 0.07 0.00 15.8 119.5 0
Wall 2E 11:59 PM 71 51 36 /16 48 / 14 13.3  (NE) 10.6 29.8 mph 70° @ 0529 AM 1.8 or 0.07 0.00 8.4 57.6 0
Weinert 2NNE 11:59 PM 71 51 36 /16 48 / 14 12.8  (NE) 10 31.6 mph 32° @ 1204 AM 2 or 0.08 0.00 13.5 98.8 0
Welch 11:59 PM 71 51 36 /16 48 / 14 9.7  (NE) 6.5 35.6 mph 53° @ 1244 AM 1.5 or 0.06 0.00 5.9 42.3 0
Wellington 6SE 11:59 PM 71 51 36 /16 48 / 14 9.9  (N) 7.2 20.8 mph 36° @ 0237 PM 2 or 0.08 0.00 17.5 134.6 0
White River Lake 6NW 11:59 PM 71 51 36 /16 48 / 14 10.4  (N) 7.3 32.9 mph 30° @ 1222 AM 2 or 0.08 0.00 7.7 56.2 0
Wolfforth 6SSW 11:59 PM 71 51 36 /16 48 / 14 12.2  (NE) 9 39.5 mph 60° @ 1239 AM 2.3 or 0.09 0.01 12.6 91.7 0

WestTexas Mesonet Home    Site Map/Menu  National Weather Service Lubbock   Soil Data   Latest Observation Page   Previous  Date   Next Last